sensor_id;sensor_type;location;lat;lon;timestamp;temperature;humidity
66576;SHT31;53428;47.686;16.584;2023-06-04T00:00:50;16.00;73.12
66576;SHT31;53428;47.686;16.584;2023-06-04T00:05:49;15.85;73.88
66576;SHT31;53428;47.686;16.584;2023-06-04T00:10:49;15.72;74.45
66576;SHT31;53428;47.686;16.584;2023-06-04T00:15:48;15.68;74.86
66576;SHT31;53428;47.686;16.584;2023-06-04T00:20:48;15.59;75.31
66576;SHT31;53428;47.686;16.584;2023-06-04T00:25:48;15.58;75.27
66576;SHT31;53428;47.686;16.584;2023-06-04T00:30:47;15.68;75.24
66576;SHT31;53428;47.686;16.584;2023-06-04T00:35:46;15.65;75.24
66576;SHT31;53428;47.686;16.584;2023-06-04T00:40:46;15.75;75.17
66576;SHT31;53428;47.686;16.584;2023-06-04T00:45:45;15.79;75.18
66576;SHT31;53428;47.686;16.584;2023-06-04T00:50:45;15.96;74.69
66576;SHT31;53428;47.686;16.584;2023-06-04T00:55:44;15.99;74.17
66576;SHT31;53428;47.686;16.584;2023-06-04T01:00:44;16.28;72.77
66576;SHT31;53428;47.686;16.584;2023-06-04T01:05:53;16.13;73.29
66576;SHT31;53428;47.686;16.584;2023-06-04T01:10:55;16.24;72.61
66576;SHT31;53428;47.686;16.584;2023-06-04T01:15:55;16.27;74.77
66576;SHT31;53428;47.686;16.584;2023-06-04T01:21:06;16.21;75.18
66576;SHT31;53428;47.686;16.584;2023-06-04T01:26:08;16.45;73.37
66576;SHT31;53428;47.686;16.584;2023-06-04T01:31:09;16.34;73.64
66576;SHT31;53428;47.686;16.584;2023-06-04T01:36:08;16.53;73.21
66576;SHT31;53428;47.686;16.584;2023-06-04T01:41:09;16.53;73.44
66576;SHT31;53428;47.686;16.584;2023-06-04T01:46:09;16.47;74.08
66576;SHT31;53428;47.686;16.584;2023-06-04T01:51:08;16.28;75.07
66576;SHT31;53428;47.686;16.584;2023-06-04T01:56:07;16.23;75.31
66576;SHT31;53428;47.686;16.584;2023-06-04T02:01:07;16.23;75.26
66576;SHT31;53428;47.686;16.584;2023-06-04T02:06:09;16.30;75.09
66576;SHT31;53428;47.686;16.584;2023-06-04T02:11:08;15.73;74.87
66576;SHT31;53428;47.686;16.584;2023-06-04T02:16:08;15.62;76.19
66576;SHT31;53428;47.686;16.584;2023-06-04T02:21:07;15.42;76.99
66576;SHT31;53428;47.686;16.584;2023-06-04T02:26:07;15.54;76.46
66576;SHT31;53428;47.686;16.584;2023-06-04T02:31:06;15.57;75.87
66576;SHT31;53428;47.686;16.584;2023-06-04T02:36:06;15.34;76.18
66576;SHT31;53428;47.686;16.584;2023-06-04T02:41:06;15.47;75.67
66576;SHT31;53428;47.686;16.584;2023-06-04T02:46:05;15.51;75.22
66576;SHT31;53428;47.686;16.584;2023-06-04T02:51:05;15.50;75.33
66576;SHT31;53428;47.686;16.584;2023-06-04T02:56:05;15.42;75.63
66576;SHT31;53428;47.686;16.584;2023-06-04T03:01:05;15.31;76.06
66576;SHT31;53428;47.686;16.584;2023-06-04T03:06:05;15.37;76.25
66576;SHT31;53428;47.686;16.584;2023-06-04T03:11:05;15.38;76.18
66576;SHT31;53428;47.686;16.584;2023-06-04T03:16:05;15.40;76.75
66576;SHT31;53428;47.686;16.584;2023-06-04T03:21:09;15.51;76.78
66576;SHT31;53428;47.686;16.584;2023-06-04T03:26:10;15.44;76.75
66576;SHT31;53428;47.686;16.584;2023-06-04T03:31:12;15.44;76.86
66576;SHT31;53428;47.686;16.584;2023-06-04T03:36:11;15.55;77.19
66576;SHT31;53428;47.686;16.584;2023-06-04T03:41:11;15.42;78.41
66576;SHT31;53428;47.686;16.584;2023-06-04T03:46:10;15.48;78.88
66576;SHT31;53428;47.686;16.584;2023-06-04T03:51:11;15.42;80.31
66576;SHT31;53428;47.686;16.584;2023-06-04T03:56:10;15.75;79.34
66576;SHT31;53428;47.686;16.584;2023-06-04T04:01:09;15.11;81.89
66576;SHT31;53428;47.686;16.584;2023-06-04T04:06:09;15.32;81.34
66576;SHT31;53428;47.686;16.584;2023-06-04T04:11:14;15.11;82.00
66576;SHT31;53428;47.686;16.584;2023-06-04T04:16:13;15.34;81.47
66576;SHT31;53428;47.686;16.584;2023-06-04T04:21:13;15.50;81.17
66576;SHT31;53428;47.686;16.584;2023-06-04T04:26:12;15.70;80.10
66576;SHT31;53428;47.686;16.584;2023-06-04T04:31:15;15.50;81.63
66576;SHT31;53428;47.686;16.584;2023-06-04T04:36:15;15.44;82.07
66576;SHT31;53428;47.686;16.584;2023-06-04T04:41:14;15.38;82.30
66576;SHT31;53428;47.686;16.584;2023-06-04T04:46:14;15.70;81.30
66576;SHT31;53428;47.686;16.584;2023-06-04T04:51:13;16.06;79.98
66576;SHT31;53428;47.686;16.584;2023-06-04T04:56:13;15.95;81.67
66576;SHT31;53428;47.686;16.584;2023-06-04T05:01:12;16.40;80.50
66576;SHT31;53428;47.686;16.584;2023-06-04T05:06:12;16.68;79.60
66576;SHT31;53428;47.686;16.584;2023-06-04T05:11:11;17.34;77.21
66576;SHT31;53428;47.686;16.584;2023-06-04T05:16:10;17.55;75.95
66576;SHT31;53428;47.686;16.584;2023-06-04T05:21:10;17.84;75.30
66576;SHT31;53428;47.686;16.584;2023-06-04T05:26:11;17.37;77.00
66576;SHT31;53428;47.686;16.584;2023-06-04T05:31:10;17.15;78.95
66576;SHT31;53428;47.686;16.584;2023-06-04T05:36:12;17.71;76.84
66576;SHT31;53428;47.686;16.584;2023-06-04T05:41:11;17.67;77.24
66576;SHT31;53428;47.686;16.584;2023-06-04T05:46:11;17.69;78.14
66576;SHT31;53428;47.686;16.584;2023-06-04T05:51:13;18.24;76.65
66576;SHT31;53428;47.686;16.584;2023-06-04T05:56:13;18.09;77.54
66576;SHT31;53428;47.686;16.584;2023-06-04T06:01:12;18.61;75.33
66576;SHT31;53428;47.686;16.584;2023-06-04T06:06:11;19.28;72.21
66576;SHT31;53428;47.686;16.584;2023-06-04T06:11:10;19.00;70.94
66576;SHT31;53428;47.686;16.584;2023-06-04T06:16:10;19.01;70.88
66576;SHT31;53428;47.686;16.584;2023-06-04T06:21:09;19.07;70.64
66576;SHT31;53428;47.686;16.584;2023-06-04T06:26:09;19.22;70.86
66576;SHT31;53428;47.686;16.584;2023-06-04T06:31:08;18.94;72.65
66576;SHT31;53428;47.686;16.584;2023-06-04T06:36:11;18.77;72.93
66576;SHT31;53428;47.686;16.584;2023-06-04T06:41:13;18.90;72.46
66576;SHT31;53428;47.686;16.584;2023-06-04T06:46:12;19.38;72.00
66576;SHT31;53428;47.686;16.584;2023-06-04T06:51:12;19.18;72.55
66576;SHT31;53428;47.686;16.584;2023-06-04T06:56:13;19.81;70.97
66576;SHT31;53428;47.686;16.584;2023-06-04T07:01:14;19.80;71.52
66576;SHT31;53428;47.686;16.584;2023-06-04T07:06:13;19.55;72.93
66576;SHT31;53428;47.686;16.584;2023-06-04T07:11:13;19.67;72.52
66576;SHT31;53428;47.686;16.584;2023-06-04T07:16:12;19.90;72.21
66576;SHT31;53428;47.686;16.584;2023-06-04T07:21:11;19.87;72.26
66576;SHT31;53428;47.686;16.584;2023-06-04T07:26:11;20.29;69.20
66576;SHT31;53428;47.686;16.584;2023-06-04T07:31:10;20.44;65.68
66576;SHT31;53428;47.686;16.584;2023-06-04T07:36:13;20.95;64.66
66576;SHT31;53428;47.686;16.584;2023-06-04T07:41:12;20.97;64.84
66576;SHT31;53428;47.686;16.584;2023-06-04T07:46:12;20.90;64.55
66576;SHT31;53428;47.686;16.584;2023-06-04T07:51:13;20.97;64.42
66576;SHT31;53428;47.686;16.584;2023-06-04T07:56:12;21.07;64.05
66576;SHT31;53428;47.686;16.584;2023-06-04T08:01:12;21.03;62.41
66576;SHT31;53428;47.686;16.584;2023-06-04T08:06:11;21.03;62.20
66576;SHT31;53428;47.686;16.584;2023-06-04T08:11:15;20.92;62.22
66576;SHT31;53428;47.686;16.584;2023-06-04T08:16:14;20.56;62.28
66576;SHT31;53428;47.686;16.584;2023-06-04T08:21:14;21.04;61.21
66576;SHT31;53428;47.686;16.584;2023-06-04T08:26:16;21.26;60.89
66576;SHT31;53428;47.686;16.584;2023-06-04T08:31:15;22.51;57.89
66576;SHT31;53428;47.686;16.584;2023-06-04T08:36:16;22.88;57.20
66576;SHT31;53428;47.686;16.584;2023-06-04T08:41:18;23.38;56.22
66576;SHT31;53428;47.686;16.584;2023-06-04T08:46:21;22.67;57.99
66576;SHT31;53428;47.686;16.584;2023-06-04T08:51:21;22.35;58.65
66576;SHT31;53428;47.686;16.584;2023-06-04T08:56:20;23.09;56.96
66576;SHT31;53428;47.686;16.584;2023-06-04T09:01:21;22.57;58.41
66576;SHT31;53428;47.686;16.584;2023-06-04T09:06:25;22.67;57.11
66576;SHT31;53428;47.686;16.584;2023-06-04T09:11:35;22.88;59.27
66576;SHT31;53428;47.686;16.584;2023-06-04T09:16:45;22.30;60.44
66576;SHT31;53428;47.686;16.584;2023-06-04T09:21:48;23.04;57.97
66576;SHT31;53428;47.686;16.584;2023-06-04T09:26:48;22.79;58.52
66576;SHT31;53428;47.686;16.584;2023-06-04T09:31:57;22.44;58.94
66576;SHT31;53428;47.686;16.584;2023-06-04T09:36:58;22.79;57.82
66576;SHT31;53428;47.686;16.584;2023-06-04T09:42:01;22.79;58.10
66576;SHT31;53428;47.686;16.584;2023-06-04T09:47:01;23.62;55.31
66576;SHT31;53428;47.686;16.584;2023-06-04T09:52:00;23.06;56.40
66576;SHT31;53428;47.686;16.584;2023-06-04T09:57:00;23.08;55.47
66576;SHT31;53428;47.686;16.584;2023-06-04T10:01:59;23.26;54.99
66576;SHT31;53428;47.686;16.584;2023-06-04T10:06:59;23.02;55.70
66576;SHT31;53428;47.686;16.584;2023-06-04T10:11:59;22.30;56.14
66576;SHT31;53428;47.686;16.584;2023-06-04T10:17:01;21.98;56.69
66576;SHT31;53428;47.686;16.584;2023-06-04T10:22:02;21.82;57.21
66576;SHT31;53428;47.686;16.584;2023-06-04T10:27:03;21.30;57.90
66576;SHT31;53428;47.686;16.584;2023-06-04T10:32:09;21.03;58.82
66576;SHT31;53428;47.686;16.584;2023-06-04T10:37:22;20.56;59.83
66576;SHT31;53428;47.686;16.584;2023-06-04T10:42:23;20.42;59.93
66576;SHT31;53428;47.686;16.584;2023-06-04T10:47:24;20.32;60.13
66576;SHT31;53428;47.686;16.584;2023-06-04T10:52:23;20.20;60.71
66576;SHT31;53428;47.686;16.584;2023-06-04T10:57:23;20.34;60.65
66576;SHT31;53428;47.686;16.584;2023-06-04T11:02:23;20.24;61.09
66576;SHT31;53428;47.686;16.584;2023-06-04T11:07:23;20.69;60.18
66576;SHT31;53428;47.686;16.584;2023-06-04T11:12:22;20.35;60.66
66576;SHT31;53428;47.686;16.584;2023-06-04T11:17:21;20.62;60.31
66576;SHT31;53428;47.686;16.584;2023-06-04T11:22:21;20.41;61.14
66576;SHT31;53428;47.686;16.584;2023-06-04T11:27:22;20.16;61.72
66576;SHT31;53428;47.686;16.584;2023-06-04T11:32:22;19.96;62.35
66576;SHT31;53428;47.686;16.584;2023-06-04T11:37:22;20.22;60.79
66576;SHT31;53428;47.686;16.584;2023-06-04T11:42:21;19.51;62.45
66576;SHT31;53428;47.686;16.584;2023-06-04T11:47:21;19.91;61.86
66576;SHT31;53428;47.686;16.584;2023-06-04T11:52:20;19.43;63.38
66576;SHT31;53428;47.686;16.584;2023-06-04T11:57:20;19.52;63.54
66576;SHT31;53428;47.686;16.584;2023-06-04T12:02:20;19.46;63.34
66576;SHT31;53428;47.686;16.584;2023-06-04T12:07:21;19.55;63.39
66576;SHT31;53428;47.686;16.584;2023-06-04T12:12:23;19.60;64.04
66576;SHT31;53428;47.686;16.584;2023-06-04T12:17:23;19.59;63.51
66576;SHT31;53428;47.686;16.584;2023-06-04T12:22:22;19.59;64.39
66576;SHT31;53428;47.686;16.584;2023-06-04T12:27:23;19.46;64.63
66576;SHT31;53428;47.686;16.584;2023-06-04T12:32:23;19.81;64.29
66576;SHT31;53428;47.686;16.584;2023-06-04T12:37:23;20.25;63.03
66576;SHT31;53428;47.686;16.584;2023-06-04T12:42:25;20.21;63.49
66576;SHT31;53428;47.686;16.584;2023-06-04T12:47:24;20.27;62.69
66576;SHT31;53428;47.686;16.584;2023-06-04T12:52:24;20.47;63.11
66576;SHT31;53428;47.686;16.584;2023-06-04T12:57:23;20.79;62.44
66576;SHT31;53428;47.686;16.584;2023-06-04T13:02:23;19.67;64.63
66576;SHT31;53428;47.686;16.584;2023-06-04T13:07:22;20.04;64.44
66576;SHT31;53428;47.686;16.584;2023-06-04T13:12:21;19.73;65.60
66576;SHT31;53428;47.686;16.584;2023-06-04T13:17:21;19.56;66.11
66576;SHT31;53428;47.686;16.584;2023-06-04T13:22:20;19.51;66.50
66576;SHT31;53428;47.686;16.584;2023-06-04T13:27:19;20.28;63.60
66576;SHT31;53428;47.686;16.584;2023-06-04T13:32:19;20.39;63.51
66576;SHT31;53428;47.686;16.584;2023-06-04T13:37:18;20.49;64.21
66576;SHT31;53428;47.686;16.584;2023-06-04T13:42:17;21.35;62.97
66576;SHT31;53428;47.686;16.584;2023-06-04T13:47:17;22.09;62.81
66576;SHT31;53428;47.686;16.584;2023-06-04T13:52:17;22.23;62.40
66576;SHT31;53428;47.686;16.584;2023-06-04T13:57:16;21.28;64.10
66576;SHT31;53428;47.686;16.584;2023-06-04T14:02:16;20.13;67.65
66576;SHT31;53428;47.686;16.584;2023-06-04T14:07:15;20.28;67.74
66576;SHT31;53428;47.686;16.584;2023-06-04T14:12:14;19.89;70.49
66576;SHT31;53428;47.686;16.584;2023-06-04T14:17:17;20.35;70.18
66576;SHT31;53428;47.686;16.584;2023-06-04T14:22:16;19.91;71.98
66576;SHT31;53428;47.686;16.584;2023-06-04T14:27:16;19.59;73.74
66576;SHT31;53428;47.686;16.584;2023-06-04T14:32:15;19.77;74.50
66576;SHT31;53428;47.686;16.584;2023-06-04T14:37:14;19.08;76.66
66576;SHT31;53428;47.686;16.584;2023-06-04T14:42:14;19.26;77.34
66576;SHT31;53428;47.686;16.584;2023-06-04T14:47:14;19.15;77.71
66576;SHT31;53428;47.686;16.584;2023-06-04T14:52:13;19.52;75.70
66576;SHT31;53428;47.686;16.584;2023-06-04T14:57:12;19.31;76.88
66576;SHT31;53428;47.686;16.584;2023-06-04T15:02:13;19.38;77.27
66576;SHT31;53428;47.686;16.584;2023-06-04T15:07:18;19.07;79.13
66576;SHT31;53428;47.686;16.584;2023-06-04T15:12:18;19.70;77.69
66576;SHT31;53428;47.686;16.584;2023-06-04T15:17:18;18.81;81.32
66576;SHT31;53428;47.686;16.584;2023-06-04T15:22:18;18.98;81.00
66576;SHT31;53428;47.686;16.584;2023-06-04T15:27:17;18.81;80.76
66576;SHT31;53428;47.686;16.584;2023-06-04T15:32:16;18.57;81.68
66576;SHT31;53428;47.686;16.584;2023-06-04T15:37:16;18.57;82.96
66576;SHT31;53428;47.686;16.584;2023-06-04T15:42:15;18.30;83.32
66576;SHT31;53428;47.686;16.584;2023-06-04T17:23:52;15.72;98.82
66576;SHT31;53428;47.686;16.584;2023-06-04T17:28:51;15.68;98.73
66576;SHT31;53428;47.686;16.584;2023-06-04T17:33:51;15.62;98.84
66576;SHT31;53428;47.686;16.584;2023-06-04T17:38:50;15.65;99.22
66576;SHT31;53428;47.686;16.584;2023-06-04T17:43:50;15.70;99.75
66576;SHT31;53428;47.686;16.584;2023-06-04T17:48:49;15.75;99.72
66576;SHT31;53428;47.686;16.584;2023-06-04T17:53:48;15.65;99.59
66576;SHT31;53428;47.686;16.584;2023-06-04T17:58:48;15.58;99.92
66576;SHT31;53428;47.686;16.584;2023-06-04T18:03:47;15.63;99.99
66576;SHT31;53428;47.686;16.584;2023-06-04T18:08:48;15.66;99.99
66576;SHT31;53428;47.686;16.584;2023-06-04T18:13:48;15.68;99.99
66576;SHT31;53428;47.686;16.584;2023-06-04T18:18:47;15.73;99.99
66576;SHT31;53428;47.686;16.584;2023-06-04T18:23:46;15.75;99.99
66576;SHT31;53428;47.686;16.584;2023-06-04T18:28:50;15.75;99.99
66576;SHT31;53428;47.686;16.584;2023-06-04T18:33:53;15.62;99.99
66576;SHT31;53428;47.686;16.584;2023-06-04T18:38:59;15.61;99.99
66576;SHT31;53428;47.686;16.584;2023-06-04T18:43:58;15.51;99.99
66576;SHT31;53428;47.686;16.584;2023-06-04T18:48:58;15.48;99.99
66576;SHT31;53428;47.686;16.584;2023-06-04T18:53:58;15.55;99.99
66576;SHT31;53428;47.686;16.584;2023-06-04T18:58:57;15.52;99.99
66576;SHT31;53428;47.686;16.584;2023-06-04T19:03:57;15.37;99.99
66576;SHT31;53428;47.686;16.584;2023-06-04T19:08:56;15.32;99.99
66576;SHT31;53428;47.686;16.584;2023-06-04T19:13:56;15.32;99.99
66576;SHT31;53428;47.686;16.584;2023-06-04T19:18:55;15.37;99.99
66576;SHT31;53428;47.686;16.584;2023-06-04T19:23:55;15.38;99.99
66576;SHT31;53428;47.686;16.584;2023-06-04T19:28:54;15.35;99.99
66576;SHT31;53428;47.686;16.584;2023-06-04T19:33:54;15.50;99.99
66576;SHT31;53428;47.686;16.584;2023-06-04T19:38:54;15.48;99.99
66576;SHT31;53428;47.686;16.584;2023-06-04T19:43:54;15.45;99.99
66576;SHT31;53428;47.686;16.584;2023-06-04T19:48:53;15.28;99.99
66576;SHT31;53428;47.686;16.584;2023-06-04T19:53:53;15.27;99.99
66576;SHT31;53428;47.686;16.584;2023-06-04T19:58:53;15.24;99.99
66576;SHT31;53428;47.686;16.584;2023-06-04T20:03:52;15.19;99.99
66576;SHT31;53428;47.686;16.584;2023-06-04T20:08:51;15.28;99.99
66576;SHT31;53428;47.686;16.584;2023-06-04T20:13:51;15.31;99.99
66576;SHT31;53428;47.686;16.584;2023-06-04T20:18:50;15.38;99.99
66576;SHT31;53428;47.686;16.584;2023-06-04T20:23:50;15.34;99.99
66576;SHT31;53428;47.686;16.584;2023-06-04T20:28:51;15.35;99.99
66576;SHT31;53428;47.686;16.584;2023-06-04T20:33:53;15.34;99.99
66576;SHT31;53428;47.686;16.584;2023-06-04T20:38:55;15.34;99.99
66576;SHT31;53428;47.686;16.584;2023-06-04T20:43:55;15.27;99.99
66576;SHT31;53428;47.686;16.584;2023-06-04T20:48:54;15.38;99.99
66576;SHT31;53428;47.686;16.584;2023-06-04T20:53:54;15.38;99.99
66576;SHT31;53428;47.686;16.584;2023-06-04T20:58:53;15.32;99.99
66576;SHT31;53428;47.686;16.584;2023-06-04T21:03:53;15.14;99.99
66576;SHT31;53428;47.686;16.584;2023-06-04T21:08:52;15.10;99.99
66576;SHT31;53428;47.686;16.584;2023-06-04T21:13:52;14.97;99.99
66576;SHT31;53428;47.686;16.584;2023-06-04T21:18:51;14.96;99.99
66576;SHT31;53428;47.686;16.584;2023-06-04T21:23:50;15.07;99.99
66576;SHT31;53428;47.686;16.584;2023-06-04T21:28:50;14.99;99.99
66576;SHT31;53428;47.686;16.584;2023-06-04T21:33:50;14.99;99.99
66576;SHT31;53428;47.686;16.584;2023-06-04T21:38:49;14.77;99.99
66576;SHT31;53428;47.686;16.584;2023-06-04T21:43:48;14.72;99.99
66576;SHT31;53428;47.686;16.584;2023-06-04T21:48:48;14.77;99.99
66576;SHT31;53428;47.686;16.584;2023-06-04T21:53:47;14.80;99.99
66576;SHT31;53428;47.686;16.584;2023-06-04T21:58:47;14.76;99.99
66576;SHT31;53428;47.686;16.584;2023-06-04T22:03:46;14.62;99.99
66576;SHT31;53428;47.686;16.584;2023-06-04T22:08:45;14.66;99.99
66576;SHT31;53428;47.686;16.584;2023-06-04T22:13:45;14.61;99.99
66576;SHT31;53428;47.686;16.584;2023-06-04T22:18:44;14.62;99.99
66576;SHT31;53428;47.686;16.584;2023-06-04T22:23:43;14.65;99.99
66576;SHT31;53428;47.686;16.584;2023-06-04T22:28:43;14.63;99.99
66576;SHT31;53428;47.686;16.584;2023-06-04T22:33:42;14.73;99.99
66576;SHT31;53428;47.686;16.584;2023-06-04T22:38:42;14.68;99.99
66576;SHT31;53428;47.686;16.584;2023-06-04T22:43:41;14.69;99.99
66576;SHT31;53428;47.686;16.584;2023-06-04T22:48:40;14.71;99.99
66576;SHT31;53428;47.686;16.584;2023-06-04T22:53:40;14.83;99.99
66576;SHT31;53428;47.686;16.584;2023-06-04T22:58:40;14.83;99.99
66576;SHT31;53428;47.686;16.584;2023-06-04T23:03:39;14.80;99.99
66576;SHT31;53428;47.686;16.584;2023-06-04T23:08:39;14.82;99.99
66576;SHT31;53428;47.686;16.584;2023-06-04T23:13:38;14.76;99.99
66576;SHT31;53428;47.686;16.584;2023-06-04T23:18:38;14.77;99.99
66576;SHT31;53428;47.686;16.584;2023-06-04T23:23:37;14.73;99.99
66576;SHT31;53428;47.686;16.584;2023-06-04T23:28:37;14.77;99.99
66576;SHT31;53428;47.686;16.584;2023-06-04T23:33:36;14.82;99.99
66576;SHT31;53428;47.686;16.584;2023-06-04T23:38:36;14.80;99.99
66576;SHT31;53428;47.686;16.584;2023-06-04T23:43:35;14.79;99.99
66576;SHT31;53428;47.686;16.584;2023-06-04T23:48:34;14.75;99.99
66576;SHT31;53428;47.686;16.584;2023-06-04T23:53:34;14.63;99.99
66576;SHT31;53428;47.686;16.584;2023-06-04T23:58:34;14.65;99.99
